Terminal Aerodrome Forecast
Issued by NWS

Home | Current Version | Previous Version | Text Only | Print | Product List | Glossary On
Versions: 1 2 3 4 5 6 7 8 9 10 11 12
000
FTUS46 KMTR 302300
TAFMRY
TAF
KMRY 302326Z 3100/3124 20011KT P6SM SCT007
     FM310100 20005KT P6SM SCT007 BKN020
     FM310500 14004KT P6SM BKN020 PROB30 3114/3118 -RA BKN020
     FM311800 22004KT P6SM -RA OVC020=

USA.gov is the U.S. government's official web portal to all federal, state and local government web resources and services.